createdAt,value
2023-03-11T00:00:23.605Z,62.84277
2023-03-11T00:00:53.569Z,62.61621
2023-03-11T00:01:23.581Z,62.58887
2023-03-11T00:01:53.629Z,62.41504
2023-03-11T00:02:23.637Z,62.77246
2023-03-11T00:02:53.577Z,62.56445
2023-03-11T00:03:23.583Z,62.15039
2023-03-11T00:03:53.576Z,62.63477
2023-03-11T00:04:23.584Z,62.59668
2023-03-11T00:04:53.630Z,62.09082
2023-03-11T00:05:23.685Z,61.51465
2023-03-11T00:05:53.571Z,61.16309
2023-03-11T00:06:23.573Z,61.18848
2023-03-11T00:06:53.579Z,61.5498
2023-03-11T00:07:23.581Z,61.80078
2023-03-11T00:07:53.590Z,61.89551
2023-03-11T00:08:23.570Z,62.18457
2023-03-11T00:08:53.593Z,61.88965
2023-03-11T00:09:23.580Z,61.50293
2023-03-11T00:09:53.580Z,61.73438
2023-03-11T00:10:23.577Z,62.57324
2023-03-11T00:10:53.592Z,62.77051
2023-03-11T00:11:23.592Z,62.73438
2023-03-11T00:11:53.576Z,62.4668
2023-03-11T00:12:23.581Z,62.5791
2023-03-11T00:12:53.578Z,62.05078
2023-03-11T00:13:23.582Z,61.58301
2023-03-11T00:13:53.589Z,61.40039
2023-03-11T00:14:23.577Z,62.30273
2023-03-11T00:14:53.577Z,62.68457
2023-03-11T00:15:23.580Z,63.23535
2023-03-11T00:15:53.578Z,63.1748
2023-03-11T00:16:23.613Z,62.75293
2023-03-11T00:16:53.665Z,61.62988
2023-03-11T00:17:23.582Z,62.32422
2023-03-11T00:17:53.582Z,62.01855
2023-03-11T00:18:23.587Z,61.73828
2023-03-11T00:18:53.572Z,61.31445
2023-03-11T00:19:23.582Z,62.13184
2023-03-11T00:19:53.582Z,62.54004
2023-03-11T00:20:23.584Z,62.42285
2023-03-11T00:20:53.579Z,62.4707
2023-03-11T00:21:23.583Z,61.79199
2023-03-11T00:21:53.584Z,62.28027
2023-03-11T00:22:23.583Z,62.36523
2023-03-11T00:22:53.598Z,62.72266
2023-03-11T00:23:23.603Z,63.06543
2023-03-11T00:23:53.580Z,63.1582
2023-03-11T00:24:23.581Z,62.0791
2023-03-11T00:24:53.590Z,61.9082
2023-03-11T00:25:23.581Z,61.88281
2023-03-11T00:25:53.598Z,61.97559
2023-03-11T00:26:23.589Z,62.20605
2023-03-11T00:26:53.584Z,62.28906
2023-03-11T00:27:23.580Z,63.12109
2023-03-11T00:27:53.588Z,63.29688
2023-03-11T00:28:23.581Z,63.06641
2023-03-11T00:28:53.587Z,62.12891
2023-03-11T00:29:23.583Z,61.9541
2023-03-11T00:29:53.589Z,61.81152
2023-03-11T00:30:23.599Z,61.68164
2023-03-11T00:30:53.633Z,62.11035
2023-03-11T00:31:23.584Z,62.69336
2023-03-11T00:31:53.585Z,63.45703
2023-03-11T00:32:23.582Z,62.39648
2023-03-11T00:32:53.675Z,62.31543
2023-03-11T00:33:23.578Z,61.94336
2023-03-11T00:33:53.584Z,61.88281
2023-03-11T00:34:23.579Z,61.74219
2023-03-11T00:34:53.589Z,61.30957
2023-03-11T00:35:23.575Z,62.05664
2023-03-11T00:35:53.603Z,61.58887
2023-03-11T00:36:23.582Z,61.40527
2023-03-11T00:36:53.587Z,61.15625
2023-03-11T00:37:23.593Z,62.20801
2023-03-11T00:37:53.591Z,62.14844
2023-03-11T00:38:23.611Z,62.13086
2023-03-11T00:38:53.645Z,61.2998
2023-03-11T00:39:23.583Z,61.42969
2023-03-11T00:39:53.578Z,61.81543
2023-03-11T00:40:23.601Z,62.34863
2023-03-11T00:40:53.582Z,61.87305
2023-03-11T00:41:23.585Z,61.28613
2023-03-11T00:41:53.662Z,61.67578
2023-03-11T00:42:23.574Z,61.31641
2023-03-11T00:42:53.585Z,61.67188
2023-03-11T00:43:23.576Z,61.20996
2023-03-11T00:43:53.573Z,61.14258
2023-03-11T00:44:23.583Z,61.35352
2023-03-11T00:44:53.584Z,60.5166
2023-03-11T00:45:23.578Z,60.22754
2023-03-11T00:45:53.603Z,60.58008
2023-03-11T00:46:23.622Z,60.72754
2023-03-11T00:46:53.795Z,60.83398
2023-03-11T00:47:23.572Z,61.03516
2023-03-11T00:47:53.576Z,61.06445
2023-03-11T00:48:23.578Z,61.07227
2023-03-11T00:48:53.577Z,61.33496
2023-03-11T00:49:23.580Z,60.90332
2023-03-11T00:49:53.578Z,61.02539
2023-03-11T00:50:23.579Z,60.9375
2023-03-11T00:50:53.582Z,60.50293
2023-03-11T00:51:23.586Z,60.2832
2023-03-11T00:51:53.592Z,60.16211
2023-03-11T00:52:23.572Z,60.00098
2023-03-11T00:52:53.575Z,59.99414
2023-03-11T00:53:23.580Z,60.12012
2023-03-11T00:53:53.577Z,60.24512
2023-03-11T00:54:23.592Z,59.83203
2023-03-11T00:54:53.585Z,59.44531
2023-03-11T00:55:23.579Z,59.19336
2023-03-11T00:55:53.573Z,59.30176
2023-03-11T00:56:23.579Z,59.26074
2023-03-11T00:56:53.579Z,59.94434
2023-03-11T00:57:23.602Z,61.53418
2023-03-11T00:57:53.583Z,61.35059
2023-03-11T00:58:23.583Z,61.18262
2023-03-11T00:58:53.580Z,60.66504
2023-03-11T00:59:23.574Z,60.19238
2023-03-11T00:59:53.581Z,60.26758
2023-03-11T01:00:23.596Z,60.78027
2023-03-11T01:00:53.582Z,60.92676
2023-03-11T01:01:23.615Z,60.29199
2023-03-11T01:01:53.578Z,61.87891
2023-03-11T01:02:23.580Z,60.54883
2023-03-11T01:02:53.580Z,60.48145
2023-03-11T01:03:23.607Z,60.26953
2023-03-11T01:03:53.582Z,59.99902
2023-03-11T01:04:23.617Z,60.25293
2023-03-11T01:04:53.593Z,59.20801
2023-03-11T01:05:23.579Z,60.05273
2023-03-11T01:05:53.582Z,59.43457
2023-03-11T01:06:26.127Z,59.90723
2023-03-11T01:06:55.203Z,59.33301
2023-03-11T01:07:23.575Z,59.74512
2023-03-11T01:07:53.575Z,58.73926
2023-03-11T01:08:23.586Z,58.78418
2023-03-11T01:08:53.577Z,59.01953
2023-03-11T01:09:23.575Z,59.10938
2023-03-11T01:09:53.573Z,59.29004
2023-03-11T01:10:23.584Z,58.53516
2023-03-11T01:10:53.583Z,58.72266
2023-03-11T01:11:23.578Z,59.33984
2023-03-11T01:11:53.574Z,59.76465
2023-03-11T01:12:23.579Z,59.76465
2023-03-11T01:12:53.581Z,60.48438
2023-03-11T01:13:23.593Z,60.4248
2023-03-11T01:13:53.595Z,60.93848
2023-03-11T01:14:23.580Z,61.22754
2023-03-11T01:14:53.581Z,60.35547
2023-03-11T01:15:23.588Z,60.26074
2023-03-11T01:15:53.665Z,60.33984
2023-03-11T01:16:23.659Z,61.27441
2023-03-11T01:16:53.582Z,60.60645
2023-03-11T01:17:23.591Z,60.70996
2023-03-11T01:17:53.576Z,61.1084
2023-03-11T01:18:23.578Z,60.38672
2023-03-11T01:18:53.601Z,60.39063
2023-03-11T01:19:23.580Z,59.91113
2023-03-11T01:19:53.584Z,60.03809
2023-03-11T01:20:23.582Z,59.77637
2023-03-11T01:20:53.589Z,60.0293
2023-03-11T01:21:23.581Z,60.16797
2023-03-11T01:21:53.580Z,60.52637
2023-03-11T01:22:23.580Z,60.86328
2023-03-11T01:22:53.584Z,60.92383
2023-03-11T01:23:23.586Z,61.25586
2023-03-11T01:23:53.580Z,61.52539
2023-03-11T01:24:23.600Z,61.43359
2023-03-11T01:24:53.581Z,61.51367
2023-03-11T01:25:23.582Z,61.33203
2023-03-11T01:25:53.573Z,61.22754
2023-03-11T01:26:23.580Z,60.76563
2023-03-11T01:26:53.579Z,60.63574
2023-03-11T01:27:23.573Z,60.54492
2023-03-11T01:27:53.592Z,60.61328
2023-03-11T01:28:23.578Z,60.81641
2023-03-11T01:28:53.581Z,60.7041
2023-03-11T01:29:23.595Z,61.11328
2023-03-11T01:29:53.582Z,60.76855
2023-03-11T01:30:23.590Z,60.45605
2023-03-11T01:30:53.616Z,60.11133
2023-03-11T01:31:23.680Z,60.63672
2023-03-11T01:31:53.584Z,60.77051
2023-03-11T01:32:23.601Z,61.73926
2023-03-11T01:32:53.583Z,62.23242
2023-03-11T01:33:23.574Z,62.18848
2023-03-11T01:33:53.584Z,62.04785
2023-03-11T01:34:23.582Z,61.4502
2023-03-11T01:34:53.586Z,61.00195
2023-03-11T01:35:23.583Z,61.2793
2023-03-11T01:35:53.618Z,60.86328
2023-03-11T01:36:23.582Z,61.23145
2023-03-11T01:36:53.576Z,60.99219
2023-03-11T01:37:23.575Z,61.54492
2023-03-11T01:37:53.573Z,62.17578
2023-03-11T01:38:23.587Z,61.82031
2023-03-11T01:38:53.580Z,62.43262
2023-03-11T01:39:23.572Z,62.19238
2023-03-11T01:39:53.575Z,62.05957
2023-03-11T01:40:23.587Z,62.19043
2023-03-11T01:40:53.584Z,61.93066
2023-03-11T01:41:23.575Z,61.56836
2023-03-11T01:41:53.572Z,61.07324
2023-03-11T01:42:23.574Z,60.97168
2023-03-11T01:42:53.577Z,60.96094
2023-03-11T01:43:23.579Z,60.90332
2023-03-11T01:43:53.575Z,60.64844
2023-03-11T01:44:23.583Z,60.42383
2023-03-11T01:44:53.584Z,60.53613
2023-03-11T01:45:23.576Z,60.39355
2023-03-11T01:45:53.579Z,59.92383
2023-03-11T01:46:23.626Z,60.04102
2023-03-11T01:46:53.774Z,60.19043
2023-03-11T01:47:23.586Z,60.12695
2023-03-11T01:47:53.583Z,60.49219
2023-03-11T01:48:23.576Z,60.2793
2023-03-11T01:48:53.591Z,60.53027
2023-03-11T01:49:23.582Z,60.68164
2023-03-11T01:49:53.584Z,60.37695
2023-03-11T01:50:23.578Z,60.39746
2023-03-11T01:50:53.575Z,60.875
2023-03-11T01:51:23.589Z,60.70996
2023-03-11T01:51:53.573Z,61.76953
2023-03-11T01:52:23.570Z,62.05664
2023-03-11T01:52:53.575Z,62.23535
2023-03-11T01:53:23.572Z,62.64844
2023-03-11T01:53:53.581Z,62.44141
2023-03-11T01:54:23.595Z,61.64648
2023-03-11T01:54:53.570Z,61.02539
2023-03-11T01:55:23.578Z,60.67188
2023-03-11T01:55:53.581Z,61.34766
2023-03-11T01:56:23.572Z,61.52441
2023-03-11T01:56:53.576Z,60.94727
2023-03-11T01:57:23.577Z,60.77344
2023-03-11T01:57:53.579Z,61.06055
2023-03-11T01:58:23.575Z,61.18945
2023-03-11T01:58:53.593Z,61.87988
2023-03-11T01:59:23.574Z,61.53125
2023-03-11T01:59:53.570Z,61.42871
2023-03-11T02:00:23.591Z,61.46289
2023-03-11T02:00:53.571Z,61.74316
2023-03-11T02:01:23.602Z,61.5957
2023-03-11T02:01:53.674Z,61.10254
2023-03-11T02:02:23.590Z,60.72168
2023-03-11T02:02:53.780Z,60.67578
2023-03-11T02:03:23.581Z,60.71387
2023-03-11T02:03:53.591Z,60.29785
2023-03-11T02:04:23.587Z,60.15137
2023-03-11T02:04:53.575Z,59.9873
2023-03-11T02:05:23.583Z,59.95996
2023-03-11T02:05:53.591Z,60.37012
2023-03-11T02:06:23.580Z,60.4502
2023-03-11T02:06:54.224Z,60.03027
2023-03-11T02:07:23.577Z,60.0127
2023-03-11T02:07:53.569Z,60.76563
2023-03-11T02:08:23.575Z,60.92773
2023-03-11T02:08:53.605Z,60.7666
2023-03-11T02:09:23.580Z,60.76172
2023-03-11T02:09:53.581Z,60.71777
2023-03-11T02:10:23.581Z,60.5166
2023-03-11T02:10:53.574Z,61.08984
2023-03-11T02:11:23.579Z,60.91895
2023-03-11T02:11:53.595Z,61.87988
2023-03-11T02:12:23.578Z,60.92285
2023-03-11T02:12:53.601Z,60.44336
2023-03-11T02:13:23.578Z,60.18555
2023-03-11T02:13:53.588Z,60.05371
2023-03-11T02:14:23.589Z,60.1123
2023-03-11T02:14:53.573Z,60.32813
2023-03-11T02:15:23.573Z,60.12305
2023-03-11T02:15:53.691Z,59.92676
2023-03-11T02:16:23.670Z,59.69922
2023-03-11T02:16:53.652Z,59.35156
2023-03-11T02:17:23.590Z,59.66602
2023-03-11T02:17:53.628Z,60.43945
2023-03-11T02:18:23.591Z,61.60254
2023-03-11T02:18:53.649Z,62.31738
2023-03-11T02:19:23.603Z,62.07617
2023-03-11T02:19:53.583Z,61.60742
2023-03-11T02:20:23.583Z,61.74805
2023-03-11T02:20:53.702Z,62.09766
2023-03-11T02:21:23.589Z,61.64941
2023-03-11T02:21:53.633Z,61.36523
2023-03-11T02:22:23.588Z,61.32422
2023-03-11T02:22:53.647Z,61.48438
2023-03-11T02:23:23.579Z,61.60449
2023-03-11T02:23:53.585Z,61.06055
2023-03-11T02:24:23.590Z,61.05176
2023-03-11T02:24:53.648Z,61.27344
2023-03-11T02:25:23.590Z,61.31836
2023-03-11T02:25:53.600Z,61.47852
2023-03-11T02:26:23.591Z,61.59277
2023-03-11T02:26:53.598Z,61.25
2023-03-11T02:27:23.590Z,61.22168
2023-03-11T02:27:53.587Z,61.17285
2023-03-11T02:28:23.583Z,61.08398
2023-03-11T02:28:53.605Z,61.00391
2023-03-11T02:29:23.595Z,60.49219
2023-03-11T02:29:53.583Z,60.13867
2023-03-11T02:30:23.599Z,60.09766
2023-03-11T02:30:53.590Z,59.91113
2023-03-11T02:31:23.637Z,60.12109
2023-03-11T02:31:53.655Z,59.9834
2023-03-11T02:32:23.742Z,60.35938
2023-03-11T02:32:53.672Z,60.83008
2023-03-11T02:33:23.600Z,60.81836
2023-03-11T02:33:53.586Z,60.34375
2023-03-11T02:34:23.587Z,60.01758
2023-03-11T02:34:53.598Z,60.07031
2023-03-11T02:35:23.586Z,60.73828
2023-03-11T02:35:53.640Z,60.74316
2023-03-11T02:36:23.589Z,60.99902
2023-03-11T02:36:53.585Z,61.45117
2023-03-11T02:37:23.581Z,61.23633
2023-03-11T02:37:53.600Z,61.43262
2023-03-11T02:38:23.602Z,61.42969
2023-03-11T02:38:53.596Z,60.96973
2023-03-11T02:39:23.612Z,61.1123
2023-03-11T02:39:53.585Z,60.90527
2023-03-11T02:40:23.591Z,60.70117
2023-03-11T02:40:53.592Z,60.65332
2023-03-11T02:41:23.592Z,60.65723
2023-03-11T02:41:53.589Z,60.76367
2023-03-11T02:42:23.603Z,60.71191
2023-03-11T02:42:53.589Z,60.95117
2023-03-11T02:43:23.592Z,61.04102
2023-03-11T02:43:53.592Z,61.67188
2023-03-11T02:44:23.599Z,61.78809
2023-03-11T02:44:53.597Z,61.8877
2023-03-11T02:45:23.588Z,61.62598
2023-03-11T02:45:53.593Z,61.17773
2023-03-11T02:46:23.620Z,60.84668
2023-03-11T02:46:53.627Z,60.74512
2023-03-11T02:47:23.586Z,60.64453
2023-03-11T02:47:53.594Z,60.38379
2023-03-11T02:48:23.587Z,60.31348
2023-03-11T02:48:53.593Z,60.36816
2023-03-11T02:49:23.597Z,60.32715
2023-03-11T02:49:53.592Z,60.48828
2023-03-11T02:50:23.582Z,60.80371
2023-03-11T02:50:53.603Z,60.99121
2023-03-11T02:51:23.579Z,61.375
2023-03-11T02:51:53.583Z,61.50586
2023-03-11T02:52:23.590Z,61.25098
2023-03-11T02:52:53.590Z,61.43262
2023-03-11T02:53:23.586Z,61.39844
2023-03-11T02:53:53.584Z,61.02051
2023-03-11T02:54:23.580Z,61.03711
2023-03-11T02:54:53.581Z,61.05176
2023-03-11T02:55:23.594Z,61.41016
2023-03-11T02:55:53.590Z,61.92285
2023-03-11T02:56:23.589Z,61.68457
2023-03-11T02:56:53.589Z,61.29297
2023-03-11T02:57:23.578Z,61.38477
2023-03-11T02:57:53.589Z,61.37207
2023-03-11T02:58:23.586Z,61.87793
2023-03-11T02:58:53.594Z,62.13379
2023-03-11T02:59:23.585Z,61.72266
2023-03-11T02:59:53.589Z,61.31738
2023-03-11T03:00:23.590Z,61.58301
2023-03-11T03:00:53.637Z,61.21289
2023-03-11T03:01:23.582Z,60.93555
2023-03-11T03:01:53.589Z,60.63965
2023-03-11T03:02:23.582Z,60.58594
2023-03-11T03:02:53.576Z,60.75879
2023-03-11T03:03:23.576Z,60.96289
2023-03-11T03:03:53.648Z,61.0293
2023-03-11T03:04:23.646Z,60.72852
2023-03-11T03:04:53.580Z,60.63379
2023-03-11T03:05:23.593Z,60.72168
2023-03-11T03:05:53.583Z,60.80078
2023-03-11T03:06:23.589Z,60.75293
2023-03-11T03:06:53.605Z,61.06543
2023-03-11T03:07:23.594Z,60.95313
2023-03-11T03:07:53.582Z,60.98242
2023-03-11T03:08:23.576Z,61.34375
2023-03-11T03:08:53.581Z,61.62793
2023-03-11T03:09:23.586Z,61.66797
2023-03-11T03:09:53.585Z,61.74805
2023-03-11T03:10:23.579Z,61.58691
2023-03-11T03:10:53.600Z,61.64355
2023-03-11T03:11:23.582Z,61.91016
2023-03-11T03:11:53.602Z,62.62109
2023-03-11T03:12:23.576Z,61.9082
2023-03-11T03:12:53.580Z,61.66797
2023-03-11T03:13:23.577Z,61.4541
2023-03-11T03:13:53.576Z,61.125
2023-03-11T03:14:23.587Z,61.30566
2023-03-11T03:14:53.580Z,60.78711
2023-03-11T03:15:23.617Z,60.95801
2023-03-11T03:15:53.587Z,60.82031
2023-03-11T03:16:23.613Z,60.81641
2023-03-11T03:16:53.659Z,60.87695
2023-03-11T03:17:23.604Z,60.64746
2023-03-11T03:17:53.575Z,60.62891
2023-03-11T03:18:23.583Z,60.17773
2023-03-11T03:18:53.598Z,60.04004
2023-03-11T03:19:23.578Z,59.50586
2023-03-11T03:19:53.583Z,58.76953
2023-03-11T03:20:23.577Z,57.98926
2023-03-11T03:20:53.578Z,57.71387
2023-03-11T03:21:23.586Z,57.62793
2023-03-11T03:21:53.591Z,57.43457
2023-03-11T03:22:23.586Z,57.21875
2023-03-11T03:22:53.581Z,57.39258
2023-03-11T03:23:23.587Z,57.38574
2023-03-11T03:23:53.583Z,57.43555
2023-03-11T03:24:23.588Z,56.98828
2023-03-11T03:24:53.593Z,57.09082
2023-03-11T03:25:23.589Z,56.8125
2023-03-11T03:25:53.586Z,56.51367
2023-03-11T03:26:23.584Z,56.55078
2023-03-11T03:26:53.584Z,56.88281
2023-03-11T03:27:23.596Z,56.43457
2023-03-11T03:27:53.587Z,56.52246
2023-03-11T03:28:23.592Z,56.35742
2023-03-11T03:28:53.581Z,56.43457
2023-03-11T03:29:23.584Z,55.93164
2023-03-11T03:29:53.585Z,55.65039
2023-03-11T03:30:23.589Z,55.33887
2023-03-11T03:30:53.588Z,55.31152
2023-03-11T03:31:23.665Z,55.33691
2023-03-11T03:31:53.618Z,55.13672
2023-03-11T03:32:23.607Z,55.50586
2023-03-11T03:32:53.625Z,55.52734
2023-03-11T03:33:23.586Z,55.5
2023-03-11T03:33:53.576Z,55.19043
2023-03-11T03:34:23.581Z,54.69043
2023-03-11T03:34:53.580Z,54.49707
2023-03-11T03:35:23.622Z,54.37695
2023-03-11T03:35:53.624Z,54.40234
2023-03-11T03:36:23.581Z,55.1582
2023-03-11T03:36:53.596Z,55.5459
2023-03-11T03:37:23.594Z,55.30957
2023-03-11T03:37:53.589Z,55.13281
2023-03-11T03:38:23.587Z,55.26563
2023-03-11T03:38:53.605Z,55.1582
2023-03-11T03:39:23.590Z,54.79785
2023-03-11T03:39:53.589Z,54.77539
2023-03-11T03:40:23.588Z,55.57715
2023-03-11T03:40:53.588Z,56.47852
2023-03-11T03:41:23.584Z,57.37598
2023-03-11T03:41:53.585Z,57.75195
2023-03-11T03:42:23.589Z,57.62891
2023-03-11T03:42:53.587Z,57.08398
2023-03-11T03:43:23.585Z,56.40625
2023-03-11T03:43:53.589Z,55.81641
2023-03-11T03:44:23.581Z,55.38086
2023-03-11T03:44:53.588Z,55.62109
2023-03-11T03:45:23.594Z,55.34961
2023-03-11T03:45:53.644Z,54.93652
2023-03-11T03:46:23.652Z,54.64258
2023-03-11T03:46:53.588Z,54.64258
2023-03-11T03:47:23.587Z,54.85059
2023-03-11T03:47:53.584Z,54.61133
2023-03-11T03:48:23.584Z,54.31641
2023-03-11T03:48:53.642Z,54.58789
2023-03-11T03:49:23.581Z,54.11523
2023-03-11T03:49:53.583Z,54.15332
2023-03-11T03:50:23.586Z,53.75781
2023-03-11T03:50:53.590Z,53.89844
2023-03-11T03:51:23.579Z,53.47559
2023-03-11T03:51:53.588Z,53.16504
2023-03-11T03:52:23.585Z,53.18555
2023-03-11T03:52:53.591Z,52.94434
2023-03-11T03:53:23.593Z,52.55469
2023-03-11T03:53:53.585Z,52.85645
2023-03-11T03:54:23.587Z,53.08887
2023-03-11T03:54:53.581Z,52.65918
2023-03-11T03:55:23.586Z,53.42871
2023-03-11T03:55:53.591Z,53.7041
2023-03-11T03:56:23.594Z,53.50391
2023-03-11T03:56:53.593Z,53.30273
2023-03-11T03:57:23.587Z,53.20605
2023-03-11T03:57:53.591Z,52.86816
2023-03-11T03:58:23.585Z,53.15234
2023-03-11T03:58:53.590Z,53.14648
2023-03-11T03:59:23.591Z,53.24414
2023-03-11T03:59:53.597Z,53.74512
2023-03-11T04:00:23.596Z,53.43848
2023-03-11T04:00:53.583Z,52.91211
2023-03-11T04:01:23.588Z,52.62207
2023-03-11T04:01:53.625Z,53.3623
2023-03-11T04:02:23.722Z,52.90625
2023-03-11T04:02:53.590Z,52.58984
2023-03-11T04:03:23.727Z,52.35352
2023-03-11T04:03:53.596Z,52.62305
2023-03-11T04:04:23.589Z,52.95703
2023-03-11T04:04:53.593Z,53.29297
2023-03-11T04:05:23.595Z,53.3457
2023-03-11T04:05:53.591Z,53.62695
2023-03-11T04:06:23.626Z,53.8916
2023-03-11T04:06:53.591Z,54.54883
2023-03-11T04:07:23.618Z,55.17578
2023-03-11T04:07:53.589Z,55.76367
2023-03-11T04:08:23.606Z,55.75
2023-03-11T04:08:53.604Z,55.58594
2023-03-11T04:09:23.589Z,55.58789
2023-03-11T04:09:53.593Z,55.35059
2023-03-11T04:10:23.604Z,54.99023
2023-03-11T04:10:53.595Z,55.93555
2023-03-11T04:11:23.593Z,55.14355
2023-03-11T04:11:53.595Z,54.8291
2023-03-11T04:12:23.611Z,54.53418
2023-03-11T04:12:53.586Z,53.56836
2023-03-11T04:13:23.589Z,53.36523
2023-03-11T04:13:53.592Z,53.4248
2023-03-11T04:14:23.596Z,52.9541
2023-03-11T04:14:53.603Z,52.36816
2023-03-11T04:15:23.642Z,51.99219
2023-03-11T04:15:53.591Z,51.68848
2023-03-11T04:16:23.782Z,51.62695
2023-03-11T04:16:53.692Z,51.86328
2023-03-11T04:17:23.614Z,52.02539
2023-03-11T04:17:53.588Z,51.9668
2023-03-11T04:18:23.594Z,51.50781
2023-03-11T04:18:53.593Z,51.63379
2023-03-11T04:19:23.603Z,51.92676
2023-03-11T04:19:53.587Z,51.62207
2023-03-11T04:20:23.590Z,51.50391
2023-03-11T04:20:53.598Z,51.10449
2023-03-11T04:21:23.598Z,50.80469
2023-03-11T04:21:53.603Z,50.30469
2023-03-11T04:22:23.586Z,50.14551
2023-03-11T04:22:53.591Z,50.37598
2023-03-11T04:23:23.596Z,50.13672
2023-03-11T04:23:53.598Z,49.78027
2023-03-11T04:24:23.590Z,49.64453
2023-03-11T04:24:53.594Z,49.75
2023-03-11T04:25:23.607Z,49.5459
2023-03-11T04:25:53.595Z,49.64746
2023-03-11T04:26:23.596Z,49.41309
2023-03-11T04:26:53.598Z,48.81836
2023-03-11T04:27:23.590Z,48.46582
2023-03-11T04:27:53.590Z,48.29102
2023-03-11T04:28:23.592Z,48.92773
2023-03-11T04:28:53.596Z,49.7959
2023-03-11T04:29:23.595Z,49.30859
2023-03-11T04:29:53.603Z,48.95508
2023-03-11T04:30:23.606Z,49.02637
2023-03-11T04:30:53.626Z,50.54883
2023-03-11T04:31:23.682Z,51.15234
2023-03-11T04:31:53.587Z,51.16211
2023-03-11T04:32:23.619Z,50.12207
2023-03-11T04:32:53.593Z,49.52539
2023-03-11T04:33:23.589Z,49.4541
2023-03-11T04:33:53.586Z,49.3418
2023-03-11T04:34:23.593Z,48.44727
2023-03-11T04:34:53.599Z,49.46875
2023-03-11T04:35:23.640Z,49.88281
2023-03-11T04:35:53.637Z,49.52832
2023-03-11T04:36:23.599Z,50.0791
2023-03-11T04:36:53.600Z,50.22949
2023-03-11T04:37:23.590Z,50.20996
2023-03-11T04:37:53.588Z,49.99805
2023-03-11T04:38:23.589Z,49.25879
2023-03-11T04:38:53.590Z,48.9873
2023-03-11T04:39:23.584Z,48.39355
2023-03-11T04:39:53.588Z,47.79395
2023-03-11T04:40:23.588Z,47.30273
2023-03-11T04:40:53.607Z,46.55371
2023-03-11T04:41:23.594Z,45.46777
2023-03-11T04:41:53.589Z,44.81641
2023-03-11T04:42:23.588Z,43.58008
2023-03-11T04:42:53.588Z,42.49316
2023-03-11T04:43:23.595Z,41.11621
2023-03-11T04:43:53.582Z,39.72266
2023-03-11T04:44:23.584Z,38.11035
2023-03-11T04:44:53.588Z,36.53418
2023-03-11T04:45:23.586Z,36.58203
2023-03-11T04:45:53.643Z,35.53223
2023-03-11T04:46:23.643Z,34.96387
2023-03-11T04:46:53.589Z,33.43555
2023-03-11T04:47:23.586Z,32.79297
2023-03-11T04:47:53.591Z,33.91406
2023-03-11T04:48:23.590Z,35.30762
2023-03-11T04:48:53.581Z,35.42773
2023-03-11T04:49:23.617Z,36.56348
2023-03-11T04:49:53.610Z,37.0498
2023-03-11T04:50:23.588Z,36.80078
2023-03-11T04:50:53.591Z,36.68945
2023-03-11T04:51:23.600Z,35.13086
2023-03-11T04:51:53.585Z,33.46289
2023-03-11T04:52:23.597Z,33.03809
2023-03-11T04:52:53.591Z,34.23926
2023-03-11T04:53:23.580Z,35.66113
2023-03-11T04:53:53.590Z,36.99023
2023-03-11T04:54:23.616Z,38.81348
2023-03-11T04:54:53.585Z,40.43652
2023-03-11T04:55:23.587Z,41.37891
2023-03-11T04:55:53.589Z,40.11328
2023-03-11T04:56:23.584Z,39.74707
2023-03-11T04:56:53.599Z,39.1123
2023-03-11T04:57:23.588Z,37.89453
2023-03-11T04:57:53.605Z,36.76563
2023-03-11T04:58:23.600Z,37.27832
2023-03-11T04:58:53.602Z,37.76855
2023-03-11T04:59:23.601Z,37.73145
2023-03-11T04:59:53.582Z,37.56055
2023-03-11T05:00:23.596Z,37.22363
2023-03-11T05:00:53.588Z,37.2041
2023-03-11T05:01:23.631Z,37.15918
2023-03-11T05:01:53.620Z,37.11914
2023-03-11T05:02:23.589Z,36.60547
2023-03-11T05:02:53.662Z,36.22363
2023-03-11T05:03:23.663Z,35.85156
2023-03-11T05:03:53.590Z,35.6582
2023-03-11T05:04:23.706Z,35.32813
2023-03-11T05:04:53.626Z,35.61719
2023-03-11T05:05:23.595Z,34.34473
2023-03-11T05:05:53.589Z,34.22168
2023-03-11T05:06:23.601Z,34.81738
2023-03-11T05:06:53.600Z,34.98633
2023-03-11T05:07:23.593Z,35.05469
2023-03-11T05:07:53.596Z,34.62012
2023-03-11T05:08:23.588Z,34.2207
2023-03-11T05:08:53.594Z,33.28223
2023-03-11T05:09:23.590Z,33.07813
2023-03-11T05:09:53.585Z,31.59766
2023-03-11T05:10:23.605Z,31.43652
2023-03-11T05:10:53.602Z,29.64063
2023-03-11T05:11:23.594Z,28.02344
2023-03-11T05:11:53.595Z,27.75098
2023-03-11T05:12:23.597Z,26.57227
2023-03-11T05:12:53.595Z,27.0332
2023-03-11T05:13:23.588Z,27.51855
2023-03-11T05:13:53.602Z,27.88184
2023-03-11T05:14:23.614Z,28.12598
2023-03-11T05:14:53.612Z,27.37402
2023-03-11T05:15:23.602Z,27.11914
2023-03-11T05:15:53.633Z,27.28711
2023-03-11T05:16:23.731Z,27.4209
2023-03-11T05:16:53.586Z,26.59277
2023-03-11T05:17:23.608Z,25.67285
2023-03-11T05:17:53.594Z,25.79785
2023-03-11T05:18:23.606Z,26.21484
2023-03-11T05:18:53.590Z,26.68066
2023-03-11T05:19:23.585Z,24.83984
2023-03-11T05:19:53.595Z,24.23535
2023-03-11T05:20:23.590Z,23.22559
2023-03-11T05:20:53.606Z,22.68555
2023-03-11T05:21:23.584Z,23.63184
2023-03-11T05:21:53.594Z,22.80664
2023-03-11T05:22:23.592Z,22.08105
2023-03-11T05:22:53.598Z,21.02832
2023-03-11T05:23:23.587Z,20.06152
2023-03-11T05:23:53.591Z,19.42676
2023-03-11T05:24:23.602Z,20.03223
2023-03-11T05:24:53.595Z,19.95117
2023-03-11T05:25:23.589Z,20.12598
2023-03-11T05:25:53.588Z,21.02441
2023-03-11T05:26:23.595Z,22.26367
2023-03-11T05:26:53.600Z,24.53027
2023-03-11T05:27:23.598Z,23.06055
2023-03-11T05:27:53.606Z,23.19434
2023-03-11T05:28:23.604Z,21.65234
2023-03-11T05:28:53.587Z,20.98535
2023-03-11T05:29:23.593Z,20.75391
2023-03-11T05:29:53.613Z,20.50391
2023-03-11T05:30:23.620Z,20.94336
2023-03-11T05:30:53.634Z,20.76367
2023-03-11T05:31:23.670Z,20.18457
2023-03-11T05:31:53.608Z,19.87695
2023-03-11T05:32:23.613Z,18.7959
2023-03-11T05:32:53.791Z,17.39453
2023-03-11T05:33:23.589Z,16.05273
2023-03-11T05:33:53.588Z,16.6582
2023-03-11T05:34:23.602Z,15.94141
2023-03-11T05:34:53.595Z,15.35449
2023-03-11T05:35:23.610Z,15.94531
2023-03-11T05:35:53.656Z,16.75781
2023-03-11T05:36:23.628Z,16.26758
2023-03-11T05:36:53.624Z,15.59668
2023-03-11T05:37:23.615Z,15.55469
2023-03-11T05:37:53.612Z,15.20117
2023-03-11T05:38:23.623Z,15.13965
2023-03-11T05:38:53.599Z,14.98633
2023-03-11T05:39:23.591Z,15.81836
2023-03-11T05:39:53.592Z,17.24805
2023-03-11T05:40:23.598Z,16.89258
2023-03-11T05:40:53.592Z,17.22363
2023-03-11T05:41:23.596Z,17.87891
2023-03-11T05:41:53.597Z,18.00781
2023-03-11T05:42:23.608Z,18.39063
2023-03-11T05:42:53.607Z,19.48047
2023-03-11T05:43:23.615Z,21.92773
2023-03-11T05:43:53.619Z,22.7373
2023-03-11T05:44:23.615Z,22.40234
2023-03-11T05:44:53.606Z,22.61133
2023-03-11T05:45:23.600Z,25.06543
2023-03-11T05:45:53.600Z,25.33398
2023-03-11T05:46:23.680Z,25.62012
2023-03-11T05:46:53.758Z,23.26563
2023-03-11T05:47:23.604Z,21.89258
2023-03-11T05:47:53.602Z,20.68652
2023-03-11T05:48:23.595Z,19.84375
2023-03-11T05:48:53.608Z,21.06641
2023-03-11T05:49:23.608Z,22.31445
2023-03-11T05:49:53.606Z,23.12891
2023-03-11T05:50:23.607Z,24.51367
2023-03-11T05:50:53.612Z,25.22266
2023-03-11T05:51:23.601Z,25.74512
2023-03-11T05:51:53.603Z,26.82129
2023-03-11T05:52:23.598Z,27.32422
2023-03-11T05:52:53.613Z,29.19141
2023-03-11T05:53:23.606Z,30.63281